createdAt,value
2022-11-05T00:02:53.865Z,1.52
2022-11-05T00:06:14.432Z,1.70
2022-11-05T00:09:32.676Z,1.80
2022-11-05T00:12:53.371Z,1.50
2022-11-05T00:16:14.470Z,1.67
2022-11-05T00:19:16.925Z,1.50
2022-11-05T00:22:37.438Z,1.42
2022-11-05T00:25:39.648Z,2.08
2022-11-05T00:28:44.032Z,1.45
2022-11-05T00:31:46.459Z,1.50
2022-11-05T00:34:48.782Z,1.45
2022-11-05T00:37:53.930Z,1.40
2022-11-05T00:40:56.990Z,1.20
2022-11-05T00:44:17.821Z,1.13
2022-11-05T00:47:38.374Z,1.20
2022-11-05T00:50:40.838Z,1.08
2022-11-05T00:53:43.061Z,1.38
2022-11-05T00:56:45.210Z,1.17
2022-11-05T00:59:47.356Z,1.08
2022-11-05T01:02:49.706Z,1.23
2022-11-05T01:05:54.823Z,1.00
2022-11-05T01:08:57.167Z,0.80
2022-11-05T01:11:59.317Z,0.90
2022-11-05T01:15:02.051Z,0.90
2022-11-05T01:18:04.952Z,0.98
2022-11-05T01:21:14.180Z,0.80
2022-11-05T01:24:16.312Z,0.65
2022-11-05T01:27:18.520Z,0.85
2022-11-05T01:30:20.738Z,0.60
2022-11-05T01:33:23.413Z,0.85
2022-11-05T01:36:25.691Z,0.75
2022-11-05T01:39:27.879Z,0.50
2022-11-05T01:42:32.541Z,0.73
2022-11-05T01:45:35.331Z,0.90
2022-11-05T01:48:38.571Z,0.60
2022-11-05T01:51:42.385Z,0.60
2022-11-05T01:54:45.858Z,0.70
2022-11-05T01:57:48.661Z,0.50
2022-11-05T02:00:51.225Z,0.70
2022-11-05T02:03:58.099Z,0.50
2022-11-05T02:07:00.517Z,0.60
2022-11-05T02:10:05.978Z,0.50
2022-11-05T02:13:08.342Z,0.52
2022-11-05T02:16:39.278Z,0.50
2022-11-05T02:19:52.988Z,0.50
2022-11-05T02:23:42.499Z,0.60
2022-11-05T02:27:16.407Z,0.68
2022-11-05T02:30:43.220Z,0.52
2022-11-05T02:34:12.945Z,0.50
2022-11-05T02:37:18.184Z,0.60
2022-11-05T02:40:32.894Z,0.50
2022-11-05T02:43:59.959Z,0.50
2022-11-05T02:47:18.011Z,0.45
2022-11-05T02:50:49.290Z,0.32
2022-11-05T02:54:18.483Z,0.52
2022-11-05T02:57:22.761Z,0.50
2022-11-05T03:00:55.375Z,0.63
2022-11-05T03:04:03.405Z,0.57
2022-11-05T03:07:23.412Z,0.40
2022-11-05T03:10:50.143Z,0.50
2022-11-05T03:14:10.515Z,0.40
2022-11-05T03:17:24.278Z,0.50
2022-11-05T03:20:39.888Z,0.40
2022-11-05T03:23:50.105Z,0.50
2022-11-05T03:30:08.238Z,0.40
2022-11-05T03:33:19.263Z,0.50
2022-11-05T03:36:28.847Z,0.40
2022-11-05T03:39:36.149Z,0.40
2022-11-05T03:42:43.992Z,0.40
2022-11-05T03:45:56.258Z,0.47
2022-11-05T03:49:01.555Z,0.40
2022-11-05T03:52:07.307Z,0.40
2022-11-05T03:55:10.080Z,0.40
2022-11-05T03:58:14.037Z,0.47
2022-11-05T04:01:16.719Z,0.40
2022-11-05T04:04:18.916Z,0.40
2022-11-05T04:07:39.507Z,0.52
2022-11-05T04:11:00.246Z,0.50
2022-11-05T04:14:02.431Z,0.50
2022-11-05T04:17:07.362Z,0.50
2022-11-05T04:20:28.247Z,0.40
2022-11-05T04:23:48.835Z,0.43
2022-11-05T04:26:50.993Z,0.40
2022-11-05T04:30:11.551Z,0.47
2022-11-05T04:33:15.152Z,0.50
2022-11-05T04:36:18.291Z,0.50
2022-11-05T04:39:21.408Z,0.40
2022-11-05T04:42:23.604Z,0.47
2022-11-05T04:45:28.031Z,0.47
2022-11-05T04:48:30.210Z,0.60
2022-11-05T04:51:32.536Z,0.40
2022-11-05T04:54:34.746Z,0.40
2022-11-05T04:57:37.713Z,0.40
2022-11-05T05:00:39.966Z,0.50
2022-11-05T05:03:42.374Z,0.40
2022-11-05T05:06:44.591Z,0.50
2022-11-05T05:09:46.752Z,0.40
2022-11-05T05:12:48.985Z,0.40
2022-11-05T05:15:51.237Z,0.40
2022-11-05T05:18:54.436Z,0.50
2022-11-05T05:21:56.661Z,0.50
2022-11-05T05:25:00.157Z,0.40
2022-11-05T05:28:02.368Z,0.40
2022-11-05T05:31:04.892Z,0.40
2022-11-05T05:34:10.749Z,0.40
2022-11-05T05:37:12.922Z,0.40
2022-11-05T05:40:15.149Z,0.40
2022-11-05T05:43:17.662Z,0.40
2022-11-05T05:46:19.960Z,0.40
2022-11-05T05:49:22.158Z,0.50
2022-11-05T05:52:24.448Z,0.45
2022-11-05T05:55:26.627Z,0.50
2022-11-05T05:58:36.187Z,0.40
2022-11-05T06:01:38.816Z,0.30
2022-11-05T06:04:41.027Z,0.40
2022-11-05T06:07:43.255Z,0.50
2022-11-05T06:10:51.930Z,0.50
2022-11-05T06:13:54.113Z,0.50
2022-11-05T06:16:56.248Z,0.43
2022-11-05T06:19:58.377Z,0.40
2022-11-05T06:23:00.601Z,0.45
2022-11-05T06:26:04.857Z,0.43
2022-11-05T06:29:07.091Z,0.40
2022-11-05T06:32:09.262Z,0.47
2022-11-05T06:35:11.524Z,0.52
2022-11-05T06:38:13.694Z,0.40
2022-11-05T06:41:15.887Z,0.43
2022-11-05T06:44:18.020Z,0.70
2022-11-05T06:47:20.299Z,0.40
2022-11-05T06:50:22.617Z,0.50
2022-11-05T06:53:25.024Z,0.50
2022-11-05T06:56:27.194Z,0.40
2022-11-05T06:59:29.357Z,0.40
2022-11-05T07:02:31.536Z,0.40
2022-11-05T07:05:35.580Z,0.40
2022-11-05T07:08:38.406Z,0.40
2022-11-05T07:11:40.605Z,0.45
2022-11-05T07:14:42.757Z,0.30
2022-11-05T07:17:44.913Z,0.50
2022-11-05T07:20:47.150Z,0.40
2022-11-05T07:23:49.340Z,0.50
2022-11-05T07:26:51.545Z,0.35
2022-11-05T07:29:53.744Z,0.30
2022-11-05T07:32:56.004Z,0.60
2022-11-05T07:35:58.203Z,0.40
2022-11-05T07:39:00.807Z,0.45
2022-11-05T07:42:03.222Z,0.50
2022-11-05T07:45:09.474Z,0.55
2022-11-05T07:48:11.630Z,0.40
2022-11-05T07:51:13.764Z,0.50
2022-11-05T07:54:15.934Z,0.40
2022-11-05T07:57:18.179Z,0.60
2022-11-05T08:00:24.384Z,0.40
2022-11-05T08:03:26.742Z,0.45
2022-11-05T08:06:28.997Z,0.50
2022-11-05T08:09:31.122Z,0.47
2022-11-05T08:12:34.072Z,0.50
2022-11-05T08:15:39.486Z,0.50
2022-11-05T08:18:41.771Z,0.40
2022-11-05T08:21:43.878Z,0.57
2022-11-05T08:24:46.125Z,0.52
2022-11-05T08:27:48.708Z,0.55
2022-11-05T08:30:52.954Z,0.40
2022-11-05T08:33:59.733Z,0.60
2022-11-05T08:37:04.456Z,0.40
2022-11-05T08:40:07.380Z,0.40
2022-11-05T08:43:11.903Z,0.50
2022-11-05T08:46:14.293Z,0.40
2022-11-05T08:49:16.834Z,0.40
2022-11-05T08:52:19.090Z,0.50
2022-11-05T08:55:22.158Z,0.45
2022-11-05T08:58:24.357Z,0.50
2022-11-05T09:01:26.617Z,0.40
2022-11-05T09:04:28.904Z,0.52
2022-11-05T09:07:31.300Z,0.50
2022-11-05T09:10:33.918Z,0.55
2022-11-05T09:13:36.039Z,0.52
2022-11-05T09:16:38.283Z,0.60
2022-11-05T09:19:40.417Z,0.50
2022-11-05T09:22:43.546Z,0.45
2022-11-05T09:25:46.576Z,0.60
2022-11-05T09:28:48.749Z,0.57
2022-11-05T09:31:50.883Z,0.47
2022-11-05T09:34:53.032Z,0.70
2022-11-05T09:38:00.651Z,0.50
2022-11-05T09:41:05.320Z,0.40
2022-11-05T09:44:15.635Z,0.40
2022-11-05T09:47:32.957Z,0.40
2022-11-05T09:50:45.587Z,0.50
2022-11-05T09:53:47.901Z,0.50
2022-11-05T09:56:50.481Z,0.63
2022-11-05T09:59:55.914Z,0.40
2022-11-05T10:03:07.942Z,0.50
2022-11-05T10:06:14.545Z,0.50
2022-11-05T10:09:23.634Z,0.50
2022-11-05T10:12:37.431Z,0.45
2022-11-05T10:16:05.098Z,0.50
2022-11-05T10:19:24.436Z,0.70
2022-11-05T10:22:26.778Z,0.52
2022-11-05T10:25:34.363Z,0.40
2022-11-05T10:28:36.772Z,0.57
2022-11-05T10:31:39.213Z,0.40
2022-11-05T10:34:42.599Z,0.57
2022-11-05T10:37:46.820Z,0.50
2022-11-05T10:40:55.098Z,0.50
2022-11-05T10:44:07.958Z,0.50
2022-11-05T10:47:35.290Z,0.50
2022-11-05T10:50:37.611Z,0.50
2022-11-05T10:53:45.832Z,0.45
2022-11-05T10:56:48.404Z,0.50
2022-11-05T10:59:50.618Z,0.50
2022-11-05T11:03:01.906Z,0.40
2022-11-05T11:06:17.524Z,0.47
2022-11-05T11:09:29.003Z,0.40
2022-11-05T11:12:41.026Z,0.47
2022-11-05T11:15:43.445Z,0.50
2022-11-05T11:18:45.731Z,0.40
2022-11-05T11:22:05.909Z,0.50
2022-11-05T11:28:49.406Z,0.40
2022-11-05T11:31:56.278Z,0.45
2022-11-05T11:34:58.620Z,2.15
2022-11-05T11:38:02.259Z,0.40
2022-11-05T11:41:29.903Z,0.40
2022-11-05T11:44:41.706Z,0.40
2022-11-05T11:47:46.257Z,0.50
2022-11-05T11:50:49.444Z,0.50
2022-11-05T11:53:57.451Z,0.50
2022-11-05T11:57:00.219Z,0.40
2022-11-05T12:00:10.010Z,0.50
2022-11-05T12:03:30.732Z,0.50
2022-11-05T12:07:03.149Z,0.47
2022-11-05T12:10:33.275Z,0.50
2022-11-05T12:13:47.720Z,0.57
2022-11-05T12:17:11.949Z,0.40
2022-11-05T12:21:00.628Z,0.55
2022-11-05T12:24:15.031Z,0.40
2022-11-05T12:27:37.987Z,0.50
2022-11-05T12:31:00.080Z,0.40
2022-11-05T12:34:20.835Z,0.50
2022-11-05T12:38:02.594Z,0.50
2022-11-05T12:41:16.808Z,0.40
2022-11-05T12:44:27.998Z,0.50
2022-11-05T12:47:57.586Z,0.80
2022-11-05T12:51:21.278Z,0.40
2022-11-05T12:54:29.410Z,0.60
2022-11-05T12:57:36.270Z,0.60
2022-11-05T13:00:42.176Z,0.45
2022-11-05T13:03:59.711Z,0.52
2022-11-05T13:07:06.800Z,0.50
2022-11-05T13:10:44.625Z,0.50
2022-11-05T13:13:59.057Z,0.40
2022-11-05T13:17:16.360Z,0.40
2022-11-05T13:20:26.602Z,0.50
2022-11-05T13:23:38.147Z,0.50
2022-11-05T13:26:55.239Z,0.40
2022-11-05T13:30:04.947Z,0.50
2022-11-05T13:33:21.122Z,0.70
2022-11-05T13:36:47.059Z,0.50
2022-11-05T13:40:00.042Z,0.40
2022-11-05T13:43:16.946Z,0.50
2022-11-05T13:46:22.713Z,0.43
2022-11-05T13:49:33.016Z,0.60
2022-11-05T13:52:47.676Z,0.40
2022-11-05T13:55:49.829Z,0.50
2022-11-05T13:58:57.937Z,0.45
2022-11-05T14:02:01.416Z,0.40
2022-11-05T14:05:05.780Z,0.50
2022-11-05T14:08:18.000Z,0.60
2022-11-05T14:11:26.095Z,0.60
2022-11-05T14:14:31.563Z,0.43
2022-11-05T14:17:55.716Z,0.40
2022-11-05T14:21:00.992Z,0.50
2022-11-05T14:24:21.720Z,0.60
2022-11-05T14:27:29.732Z,0.70
2022-11-05T14:30:47.001Z,0.60
2022-11-05T14:34:03.671Z,0.47
2022-11-05T14:37:11.987Z,0.40
2022-11-05T14:40:26.313Z,0.40
2022-11-05T14:43:33.122Z,0.47
2022-11-05T14:46:48.079Z,0.65
2022-11-05T14:50:12.066Z,0.50
2022-11-05T14:53:32.407Z,0.50
2022-11-05T14:56:53.293Z,0.60
2022-11-05T15:00:00.942Z,0.68
2022-11-05T15:03:25.098Z,0.60
2022-11-05T15:06:29.219Z,0.70
2022-11-05T15:09:40.465Z,0.70
2022-11-05T15:12:50.718Z,0.90
2022-11-05T15:15:53.023Z,0.98
2022-11-05T15:18:56.696Z,0.98
2022-11-05T15:22:03.372Z,0.80
2022-11-05T15:25:14.493Z,0.77
2022-11-05T15:28:37.186Z,0.90
2022-11-05T15:31:41.423Z,0.80
2022-11-05T15:34:54.592Z,0.90
2022-11-05T15:38:02.015Z,0.98
2022-11-05T15:41:13.779Z,0.88
2022-11-05T15:44:27.809Z,0.80
2022-11-05T15:47:31.395Z,1.17
2022-11-05T15:50:33.602Z,1.13
2022-11-05T15:54:01.828Z,1.20
2022-11-05T15:57:06.000Z,1.15
2022-11-05T16:00:23.644Z,1.30
2022-11-05T16:03:28.741Z,1.65
2022-11-05T16:06:39.581Z,1.52
2022-11-05T16:09:51.099Z,1.40
2022-11-05T16:12:53.276Z,1.88
2022-11-05T16:15:57.773Z,1.77
2022-11-05T16:19:00.709Z,1.90
2022-11-05T16:22:05.033Z,1.90
2022-11-05T16:25:31.491Z,2.20
2022-11-05T16:28:33.751Z,2.17
2022-11-05T16:31:36.262Z,2.45
2022-11-05T16:34:46.339Z,2.65
2022-11-05T16:37:52.020Z,2.00
2022-11-05T16:40:54.599Z,2.28
2022-11-05T16:43:59.165Z,2.50
2022-11-05T16:47:01.274Z,2.88
2022-11-05T16:50:14.792Z,2.30
2022-11-05T16:53:17.765Z,2.88
2022-11-05T16:56:22.319Z,2.58
2022-11-05T16:59:24.501Z,2.63
2022-11-05T17:02:27.931Z,2.63
2022-11-05T17:05:31.412Z,2.30
2022-11-05T17:08:33.648Z,2.67
2022-11-05T17:11:35.920Z,2.88
2022-11-05T17:14:38.513Z,2.90
2022-11-05T17:17:40.661Z,3.00
2022-11-05T17:20:51.548Z,2.58
2022-11-05T17:23:53.689Z,2.63
2022-11-05T17:26:55.849Z,2.78
2022-11-05T17:29:57.988Z,3.40
2022-11-05T17:33:00.254Z,4.20
2022-11-05T17:36:10.331Z,5.80
2022-11-05T17:39:12.956Z,6.72
2022-11-05T17:42:15.070Z,8.98
2022-11-05T17:45:18.282Z,9.63
2022-11-05T17:48:21.250Z,9.40
2022-11-05T17:51:23.410Z,9.45
2022-11-05T17:54:25.578Z,10.00
2022-11-05T17:57:28.687Z,9.68
2022-11-05T18:00:30.822Z,9.45
2022-11-05T18:03:33.320Z,8.25
2022-11-05T18:06:39.543Z,9.43
2022-11-05T18:09:42.191Z,7.57
2022-11-05T18:12:44.706Z,8.18
2022-11-05T18:15:46.900Z,8.23
2022-11-05T18:18:53.240Z,8.60
2022-11-05T18:21:56.104Z,7.38
2022-11-05T18:24:58.305Z,7.22
2022-11-05T18:28:01.907Z,8.40
2022-11-05T18:31:20.685Z,6.90
2022-11-05T18:34:22.950Z,7.63
2022-11-05T18:37:25.443Z,7.45
2022-11-05T18:40:27.866Z,7.03
2022-11-05T18:43:29.989Z,6.95
2022-11-05T18:49:55.558Z,5.60
2022-11-05T18:52:57.771Z,5.97
2022-11-05T18:55:59.971Z,5.82
2022-11-05T18:59:34.619Z,6.53
2022-11-05T19:02:24.582Z,6.40
2022-11-05T19:05:29.302Z,5.47
2022-11-05T19:08:33.019Z,6.28
2022-11-05T19:11:35.544Z,6.22
2022-11-05T19:14:37.687Z,5.93
2022-11-05T19:17:39.857Z,6.47
2022-11-05T19:20:42.318Z,6.57
2022-11-05T19:23:44.505Z,6.03
2022-11-05T19:26:47.619Z,6.05
2022-11-05T19:29:49.754Z,5.35
2022-11-05T19:32:51.921Z,5.85
2022-11-05T19:35:54.172Z,5.10
2022-11-05T19:38:58.352Z,5.53
2022-11-05T19:42:03.930Z,6.43
2022-11-05T19:45:30.414Z,6.20
2022-11-05T19:48:29.203Z,6.00
2022-11-05T19:51:33.092Z,5.05
2022-11-05T19:54:36.093Z,5.50
2022-11-05T19:57:38.228Z,5.32
2022-11-05T20:04:05.992Z,4.72
2022-11-05T20:07:08.376Z,6.60
2022-11-05T20:10:10.798Z,5.53
2022-11-05T20:13:19.500Z,5.53
2022-11-05T20:16:24.840Z,5.57
2022-11-05T20:19:27.074Z,5.68
2022-11-05T20:22:29.320Z,5.20
2022-11-05T20:25:31.596Z,6.05
2022-11-05T20:28:35.430Z,5.93
2022-11-05T20:31:37.578Z,4.93
2022-11-05T20:34:40.097Z,5.63
2022-11-05T20:37:42.353Z,5.53
2022-11-05T20:40:44.498Z,5.15
2022-11-05T20:43:48.133Z,5.32
2022-11-05T20:46:50.258Z,5.97
2022-11-05T20:49:52.391Z,5.75
2022-11-05T20:52:54.546Z,5.97
2022-11-05T20:55:56.678Z,6.65
2022-11-05T20:59:00.192Z,6.18
2022-11-05T21:02:02.498Z,5.40
2022-11-05T21:05:05.228Z,6.50
2022-11-05T21:08:07.467Z,6.18
2022-11-05T21:11:10.784Z,5.95
2022-11-05T21:14:13.164Z,5.90
2022-11-05T21:17:15.287Z,6.72
2022-11-05T21:20:17.833Z,6.60
2022-11-05T21:23:20.598Z,6.03
2022-11-05T21:26:22.756Z,6.35
2022-11-05T21:29:24.968Z,5.95
2022-11-05T21:32:27.184Z,6.55
2022-11-05T21:35:29.367Z,6.63
2022-11-05T21:38:31.573Z,6.15
2022-11-05T21:41:33.815Z,5.82
2022-11-05T21:44:36.122Z,5.35
2022-11-05T21:47:38.379Z,5.72
2022-11-05T21:51:01.402Z,6.65
2022-11-05T21:54:22.139Z,6.07
2022-11-05T21:57:43.216Z,6.43
2022-11-05T22:00:45.482Z,6.95
2022-11-05T22:03:47.697Z,6.90
2022-11-05T22:06:49.832Z,5.90
2022-11-05T22:09:52.433Z,6.18
2022-11-05T22:12:54.712Z,6.35
2022-11-05T22:15:57.504Z,7.13
2022-11-05T22:18:59.955Z,5.63
2022-11-05T22:22:03.761Z,6.13
2022-11-05T22:25:06.163Z,5.70
2022-11-05T22:28:08.376Z,6.38
2022-11-05T22:31:15.170Z,5.50
2022-11-05T22:34:17.602Z,6.00
2022-11-05T22:37:19.726Z,5.65
2022-11-05T22:40:23.952Z,6.22
2022-11-05T22:43:26.534Z,5.47
2022-11-05T22:46:29.133Z,5.00
2022-11-05T22:49:31.644Z,4.70
2022-11-05T22:52:33.879Z,5.78
2022-11-05T22:55:39.813Z,5.22
2022-11-05T22:58:42.714Z,5.25
2022-11-05T23:01:46.171Z,5.00
2022-11-05T23:04:49.649Z,4.65
2022-11-05T23:08:10.562Z,5.25
2022-11-05T23:11:38.742Z,4.97
2022-11-05T23:14:40.925Z,4.40
2022-11-05T23:18:01.842Z,4.70
2022-11-05T23:21:23.260Z,4.55
2022-11-05T23:24:25.592Z,4.72
2022-11-05T23:27:36.363Z,4.28
2022-11-05T23:31:00.599Z,4.30
2022-11-05T23:34:02.740Z,4.35
2022-11-05T23:37:23.889Z,4.40
2022-11-05T23:40:29.066Z,4.68
2022-11-05T23:43:49.680Z,4.50
2022-11-05T23:47:10.387Z,4.60
2022-11-05T23:50:12.522Z,3.75
2022-11-05T23:53:14.975Z,4.53
2022-11-05T23:56:17.123Z,4.43
2022-11-05T23:59:19.311Z,4.10
